Aviation Digital Data Service (ADDS)

Output produced by METARs form (1356 UTC 17 October 2018)
found at http://aviationweather.gov/metar/data/
 
METAR text: KONP 171335Z AUTO 07010KT 10SM CLR 16/00 A3013 RMK AO2
Conditions at: KONP (NEWPORT , OR, US) observed 1335 UTC 17 October 2018
Temperature: 16.0°C (61°F)
Dewpoint: 0.0°C (32°F) [RH = 34%]
Pressure (altimeter): 30.13 inches Hg (1020.4 mb)
Winds: from the ENE (70 degrees) at 12 MPH (10 knots; 5.1 m/s)
Visibility: 10 or more miles (16+ km)
Ceiling: at least 12,000 feet AGL
Clouds: sky clear below 12,000 feet AGL
Weather: automated observation with no human augmentation;
there may or may not be significant weather present at this time

METAR text: KONP 171315Z AUTO 08011KT 10SM CLR 16/00 A3013 RMK AO2
Conditions at: KONP (NEWPORT , OR, US) observed 1315 UTC 17 October 2018
Temperature: 16.0°C (61°F)
Dewpoint: 0.0°C (32°F) [RH = 34%]
Pressure (altimeter): 30.13 inches Hg (1020.4 mb)
Winds: from the E (80 degrees) at 13 MPH (11 knots; 5.7 m/s)
Visibility: 10 or more miles (16+ km)
Ceiling: at least 12,000 feet AGL
Clouds: sky clear below 12,000 feet AGL
Weather: automated observation with no human augmentation;
there may or may not be significant weather present at this time

METAR text: KONP 171255Z AUTO 08013KT 10SM CLR 16/00 A3012 RMK AO2
Conditions at: KONP (NEWPORT , OR, US) observed 1255 UTC 17 October 2018
Temperature: 16.0°C (61°F)
Dewpoint: 0.0°C (32°F) [RH = 34%]
Pressure (altimeter): 30.12 inches Hg (1020.1 mb)
Winds: from the E (80 degrees) at 15 MPH (13 knots; 6.7 m/s)
Visibility: 10 or more miles (16+ km)
Ceiling: at least 12,000 feet AGL
Clouds: sky clear below 12,000 feet AGL
Weather: automated observation with no human augmentation;
there may or may not be significant weather present at this time

METAR text: KONP 171235Z AUTO 08011KT 10SM CLR 16/00 A3012 RMK AO2
Conditions at: KONP (NEWPORT , OR, US) observed 1235 UTC 17 October 2018
Temperature: 16.0°C (61°F)
Dewpoint: 0.0°C (32°F) [RH = 34%]
Pressure (altimeter): 30.12 inches Hg (1020.1 mb)
Winds: from the E (80 degrees) at 13 MPH (11 knots; 5.7 m/s)
Visibility: 10 or more miles (16+ km)
Ceiling: at least 12,000 feet AGL
Clouds: sky clear below 12,000 feet AGL
Weather: automated observation with no human augmentation;
there may or may not be significant weather present at this time

METAR text: KONP 171215Z AUTO 08011KT 10SM CLR 16/00 A3012 RMK AO2
Conditions at: KONP (NEWPORT , OR, US) observed 1215 UTC 17 October 2018
Temperature: 16.0°C (61°F)
Dewpoint: 0.0°C (32°F) [RH = 34%]
Pressure (altimeter): 30.12 inches Hg (1020.1 mb)
Winds: from the E (80 degrees) at 13 MPH (11 knots; 5.7 m/s)
Visibility: 10 or more miles (16+ km)
Ceiling: at least 12,000 feet AGL
Clouds: sky clear below 12,000 feet AGL
Weather: automated observation with no human augmentation;
there may or may not be significant weather present at this time

Forecast for: KONP (NEWPORT , OR, US)
Text: KONP 171130Z 1712/1812 09012G18KT P6SM SKC
Forecast period: 1200 to 1700 UTC 17 October 2018
Forecast type: FROM: standard forecast or significant change
Winds: from the E (90 degrees) at 14 MPH (12 knots; 6.2 m/s)
gusting to 21 MPH (18 knots; 9.3 m/s)
Visibility: 6 or more miles 10+ km)
Clouds: clear skies
Weather: no significant weather forecast for this period
Text: FM171700 08007KT P6SM SKC
Forecast period: 1700 to 2300 UTC 17 October 2018
Forecast type: FROM: standard forecast or significant change
Winds: from the E (80 degrees) at 8 MPH (7 knots; 3.6 m/s)
Visibility: 6 or more miles 10+ km)
Clouds: clear skies
Weather: no significant weather forecast for this period
Text: FM172300 34006KT P6SM SKC
Forecast period: 2300 UTC 17 October 2018 to 0500 UTC 18 October 2018
Forecast type: FROM: standard forecast or significant change
Winds: from the NNW (340 degrees) at 7 MPH (6 knots; 3.1 m/s)
Visibility: 6 or more miles 10+ km)
Clouds: clear skies
Weather: no significant weather forecast for this period
Text: FM180500 07004KT P6SM SKC
Forecast period: 0500 to 1200 UTC 18 October 2018
Forecast type: FROM: standard forecast or significant change
Winds: from the ENE (70 degrees) at 5 MPH (4 knots; 2.1 m/s)
Visibility: 6 or more miles 10+ km)
Clouds: clear skies
Weather: no significant weather forecast for this period